桃園國際機場 - 塔臺(一站)

METAR RCTP 201830Z 04014KT 9999 FEW015 BKN030 22/17 Q1014 NOSIG RMK A2996(T)=

站台狀態:Offline
最後更新:2019-10-21 02:30:02